Time;durP1;ratioP1;P1;durP2;ratioP2;P2;SDS_P1;SDS_P2;PMS_P1;PMS_P2;Temp;Humidity;BMP_temperature;BMP_pressure;BME280_temperature;BME280_humidity;BME280_pressure;Samples;Min_cycle;Max_cycle;Signal;HPM_P1;HPM_P2
2022/07/05 00:02:35;;;;;;;3.40;2.63;;;;;;;27.52;80.09;100968.16;5157905;27;20099;-75
2022/07/05 00:05:21;;;;;;;4.68;2.90;;;;;;;27.58;77.35;100962.25;5158009;27;20041;-77
2022/07/05 00:08:07;;;;;;;3.65;2.40;;;;;;;27.65;78.67;100962.59;5157658;27;20123;-77
2022/07/05 00:10:52;;;;;;;3.13;2.35;;;;;;;27.76;74.05;100960.69;5158252;27;20023;-77
2022/07/05 00:13:38;;;;;;;8.85;3.22;;;;;;;28.05;73.67;100960.94;5157778;27;20127;-78
2022/07/05 00:16:24;;;;;;;7.93;2.92;;;;;;;27.89;78.78;100960.56;5157333;27;20502;-77
2022/07/05 00:19:10;;;;;;;4.53;2.55;;;;;;;27.51;83.99;100953.00;5144089;27;20040;-78
2022/07/05 00:21:55;;;;;;;5.65;2.90;;;;;;;27.35;81.17;100952.56;5157258;27;20337;-77
2022/07/05 00:24:41;;;;;;;4.60;2.65;;;;;;;27.53;78.62;100956.41;5157123;27;20033;-76
2022/07/05 00:27:27;;;;;;;5.75;2.65;;;;;;;27.70;79.94;100954.97;5157327;27;20022;-77
2022/07/05 00:30:13;;;;;;;4.50;2.72;;;;;;;27.74;81.89;100956.44;5156924;27;20405;-77
2022/07/05 00:32:59;;;;;;;5.05;2.67;;;;;;;27.66;86.22;100951.72;5157705;27;20336;-77
2022/07/05 00:35:45;;;;;;;6.28;4.13;;;;;;;27.39;88.30;100957.56;5142135;27;20015;-76
2022/07/05 00:38:31;;;;;;;6.22;4.50;;;;;;;27.37;88.08;100953.31;5156376;27;20026;-76
2022/07/05 00:41:16;;;;;;;6.95;3.15;;;;;;;27.31;89.57;100935.81;5156828;27;20031;-77
2022/07/05 00:44:05;;;;;;;4.07;2.83;;;;;;;26.87;93.71;100935.91;5141555;27;20363;-77
2022/07/05 00:46:51;;;;;;;5.18;3.10;;;;;;;27.16;91.59;100936.19;5156794;27;20459;-77
2022/07/05 00:49:39;;;;;;;3.35;2.72;;;;;;;27.00;92.15;100928.53;5157115;27;20057;-75
2022/07/05 00:52:25;;;;;;;5.00;3.13;;;;;;;26.94;93.63;100926.34;5156479;27;20027;-77
2022/07/05 00:55:10;;;;;;;6.70;3.20;;;;;;;27.06;94.71;100930.72;5156439;27;20053;-76
2022/07/05 00:57:56;;;;;;;6.88;3.17;;;;;;;27.08;97.25;100922.50;5156717;27;20027;-77
2022/07/05 01:00:42;;;;;;;5.07;3.15;;;;;;;27.08;98.53;100923.38;5156931;27;20068;-77
2022/07/05 01:03:28;;;;;;;3.60;2.97;;;;;;;27.08;99.78;100925.19;5156693;27;20075;-77
2022/07/05 01:06:14;;;;;;;5.05;2.90;;;;;;;27.15;100.00;100924.59;5156907;27;20109;-77
2022/07/05 01:09:00;;;;;;;5.65;3.00;;;;;;;26.86;100.00;100922.56;5156232;27;20095;-77
2022/07/05 01:11:48;;;;;;;4.47;3.13;;;;;;;27.35;100.00;100918.44;5156209;27;20038;-75
2022/07/05 01:14:34;;;;;;;7.20;3.58;;;;;;;26.97;100.00;100920.69;5156692;27;20015;-78
2022/07/05 01:17:21;;;;;;;7.32;3.30;;;;;;;26.93;100.00;100915.72;5141028;27;20036;-76
2022/07/05 01:20:07;;;;;;;7.18;3.47;;;;;;;26.65;100.00;100922.47;5156379;27;20026;-76
2022/07/05 01:22:55;;;;;;;8.18;3.65;;;;;;;26.70;100.00;100917.59;5156621;27;20119;-77
2022/07/05 01:25:41;;;;;;;4.13;3.10;;;;;;;26.83;100.00;100914.75;5155900;27;20022;-77
2022/07/05 01:28:27;;;;;;;11.88;3.58;;;;;;;26.78;100.00;100908.91;5155713;27;20039;-77
2022/07/05 01:31:12;;;;;;;8.13;3.40;;;;;;;26.80;99.27;100904.28;5156536;27;20083;-77
2022/07/05 01:33:59;;;;;;;10.07;3.58;;;;;;;26.82;100.00;100907.66;5156118;27;20030;-77
2022/07/05 01:36:44;;;;;;;6.82;3.40;;;;;;;26.94;100.00;100909.34;5157477;27;20386;-77
2022/07/05 01:39:30;;;;;;;6.35;3.17;;;;;;;26.99;100.00;100905.31;5141559;27;20042;-76
2022/07/05 01:42:16;;;;;;;7.25;3.50;;;;;;;26.84;100.00;100916.47;5155670;27;20499;-77
2022/07/05 01:45:03;;;;;;;5.78;3.33;;;;;;;26.81;100.00;100916.72;5155957;27;20022;-77
2022/07/05 01:47:49;;;;;;;7.38;3.45;;;;;;;26.43;100.00;100919.78;5155348;27;20023;-76
2022/07/05 01:50:41;;;;;;;8.73;3.33;;;;;;;26.19;100.00;100918.16;5155613;27;20054;-76
2022/07/05 01:53:28;;;;;;;7.50;3.58;;;;;;;26.34;100.00;100925.03;5155103;27;20046;-76
2022/07/05 01:56:14;;;;;;;7.38;3.67;;;;;;;26.34;100.00;100927.72;5156434;27;20030;-77
2022/07/05 01:59:00;;;;;;;6.78;3.55;;;;;;;26.12;100.00;100928.53;5155065;27;20451;-77
2022/07/05 02:01:46;;;;;;;5.75;3.88;;;;;;;25.82;100.00;100932.72;5156140;27;20383;-78
2022/07/05 02:04:34;;;;;;;5.30;3.50;;;;;;;26.00;100.00;100932.19;5155403;27;20044;-77
2022/07/05 02:07:20;;;;;;;7.63;3.70;;;;;;;26.11;100.00;100939.41;5140806;27;20351;-76
2022/07/05 02:10:06;;;;;;;4.68;3.00;;;;;;;26.51;100.00;100927.22;5159308;27;20022;-77
2022/07/05 02:12:51;;;;;;;6.78;3.53;;;;;;;26.21;100.00;100937.72;5162547;27;20360;-77
2022/07/05 02:15:39;;;;;;;7.25;3.40;;;;;;;26.32;100.00;100935.06;5156784;27;20030;-76
2022/07/05 02:18:25;;;;;;;4.45;3.35;;;;;;;26.30;100.00;100937.84;5155704;27;20085;-76
2022/07/05 02:21:11;;;;;;;5.47;3.10;;;;;;;26.22;100.00;100934.06;5140692;27;20031;-76
2022/07/05 02:23:57;;;;;;;4.72;3.20;;;;;;;26.23;100.00;100936.63;5154605;27;20376;-76
2022/07/05 02:26:42;;;;;;;5.38;3.13;;;;;;;26.04;100.00;100938.19;5155843;27;20118;-77
2022/07/05 02:29:28;;;;;;;4.22;3.00;;;;;;;26.11;100.00;100937.59;5155214;27;20027;-76
2022/07/05 02:32:14;;;;;;;4.25;3.10;;;;;;;26.31;100.00;100938.69;5155380;27;20022;-76
2022/07/05 02:35:00;;;;;;;7.25;3.20;;;;;;;26.09;100.00;100942.22;5154647;27;20388;-76
2022/07/05 02:37:45;;;;;;;7.93;3.25;;;;;;;25.59;100.00;100933.63;5155908;27;20133;-76
2022/07/05 02:40:31;;;;;;;4.35;2.90;;;;;;;25.80;100.00;100938.19;5162475;27;20071;-76
2022/07/05 02:43:17;;;;;;;4.30;3.00;;;;;;;25.33;100.00;100942.78;5148225;27;20096;-76
2022/07/05 02:46:04;;;;;;;5.93;3.22;;;;;;;25.70;100.00;100939.91;5156083;27;20049;-76
2022/07/05 02:48:51;;;;;;;3.65;3.03;;;;;;;25.38;100.00;100938.78;5145915;27;20109;-76
2022/07/05 02:51:36;;;;;;;5.32;3.15;;;;;;;25.59;100.00;100945.22;5155225;27;20031;-76
2022/07/05 02:54:22;;;;;;;6.10;3.20;;;;;;;25.67;100.00;100945.47;5154916;27;20079;-76
2022/07/05 02:57:08;;;;;;;9.85;3.45;;;;;;;25.76;100.00;100946.63;5140210;27;20034;-76
2022/07/05 02:59:54;;;;;;;7.15;3.75;;;;;;;25.68;100.00;100954.41;5139857;27;20419;-76
2022/07/05 03:02:40;;;;;;;4.70;3.35;;;;;;;25.71;100.00;100948.78;5144228;27;20087;-77
2022/07/05 03:05:26;;;;;;;5.35;3.25;;;;;;;25.49;100.00;100948.72;5158428;27;20063;-77
2022/07/05 03:08:12;;;;;;;7.38;3.35;;;;;;;25.42;100.00;100947.44;5159291;27;20068;-77
2022/07/05 03:10:57;;;;;;;6.60;3.58;;;;;;;25.60;100.00;100946.91;5159237;27;20486;-76
2022/07/05 03:13:43;;;;;;;5.97;3.45;;;;;;;25.99;100.00;100948.41;5144835;27;20027;-76
2022/07/05 03:16:29;;;;;;;6.13;3.65;;;;;;;26.18;100.00;100949.56;5159086;27;20029;-76
2022/07/05 03:19:15;;;;;;;4.55;3.25;;;;;;;26.31;98.80;100962.88;5158827;27;20023;-76
2022/07/05 03:22:00;;;;;;;5.63;2.80;;;;;;;26.12;98.68;100962.63;5158183;27;20027;-76
2022/07/05 03:24:46;;;;;;;8.18;3.53;;;;;;;26.53;96.16;100960.22;5158528;27;20053;-76
2022/07/05 03:27:32;;;;;;;5.80;2.95;;;;;;;25.91;100.00;100961.53;5159202;27;20023;-77
2022/07/05 03:30:18;;;;;;;10.07;3.28;;;;;;;25.68;100.00;100970.50;5158174;27;20363;-77
2022/07/05 03:33:03;;;;;;;6.88;3.22;;;;;;;26.04;97.76;100962.34;5157918;27;20030;-77
2022/07/05 03:35:49;;;;;;;7.57;3.20;;;;;;;26.00;98.70;100952.81;5143017;27;20018;-77
2022/07/05 03:38:36;;;;;;;4.32;3.42;;;;;;;26.08;97.94;100953.94;5144271;27;20091;-77
2022/07/05 03:41:21;;;;;;;10.43;3.58;;;;;;;26.20;96.04;100955.66;5158544;27;20114;-76
2022/07/05 03:44:07;;;;;;;6.50;3.28;;;;;;;26.06;95.85;100968.44;5158891;27;20027;-76
2022/07/05 03:46:53;;;;;;;7.03;3.40;;;;;;;25.95;97.05;100963.03;5158322;27;20486;-77
2022/07/05 03:49:38;;;;;;;4.25;3.22;;;;;;;26.25;95.93;100958.00;5158664;27;20091;-76
2022/07/05 03:52:24;;;;;;;7.05;3.38;;;;;;;26.34;95.57;100965.31;5157544;27;20026;-76
2022/07/05 03:55:10;;;;;;;5.03;3.30;;;;;;;26.75;92.55;100971.84;5157699;27;20042;-77
2022/07/05 03:57:56;;;;;;;5.55;3.53;;;;;;;26.13;95.90;100975.06;5143580;27;20474;-76
2022/07/05 04:00:42;;;;;;;6.88;3.33;;;;;;;26.20;96.05;100974.47;5159035;27;20019;-77
2022/07/05 04:03:27;;;;;;;10.07;3.72;;;;;;;26.04;97.48;100973.09;5157547;27;20023;-76
2022/07/05 04:06:13;;;;;;;9.23;3.40;;;;;;;25.99;98.48;100972.56;5158035;27;20050;-76
2022/07/05 04:08:59;;;;;;;8.68;3.55;;;;;;;25.96;98.28;100973.66;5158090;27;20022;-76
2022/07/05 04:11:44;;;;;;;8.40;3.50;;;;;;;26.09;96.76;100982.53;5157258;27;20405;-77
2022/07/05 04:14:30;;;;;;;7.03;4.68;;;;;;;26.00;97.80;100983.19;5142665;27;20019;-76
2022/07/05 04:17:16;;;;;;;5.75;3.50;;;;;;;26.22;96.34;100985.09;5157725;27;20042;-77
2022/07/05 04:20:02;;;;;;;5.13;3.63;;;;;;;26.29;96.56;100981.78;5158334;27;20496;-76
2022/07/05 04:22:49;;;;;;;8.27;3.63;;;;;;;26.84;94.33;100976.47;5157400;27;20054;-77
2022/07/05 04:25:35;;;;;;;8.65;3.78;;;;;;;26.75;92.98;100973.66;5158314;27;20023;-77
2022/07/05 04:28:21;;;;;;;10.80;3.97;;;;;;;27.35;90.48;100982.16;5157525;27;20049;-77
2022/07/05 04:31:07;;;;;;;7.20;3.50;;;;;;;27.35;87.86;100982.16;5157312;27;20031;-77
2022/07/05 04:33:53;;;;;;;5.47;3.40;;;;;;;27.31;88.46;100978.88;5157453;27;20029;-77
2022/07/05 04:36:40;;;;;;;9.43;3.92;;;;;;;27.63;85.83;100983.41;5157572;27;20027;-77
2022/07/05 04:39:26;;;;;;;5.93;3.58;;;;;;;27.62;84.17;100984.38;5142446;27;20096;-77
2022/07/05 04:42:11;;;;;;;5.30;3.92;;;;;;;27.61;84.62;100980.88;5156771;27;20026;-77
2022/07/05 04:44:57;;;;;;;5.93;3.95;;;;;;;28.21;81.95;100978.34;5142999;27;20061;-77
2022/07/05 04:47:43;;;;;;;7.65;3.50;;;;;;;27.65;82.47;100978.75;5141943;27;20106;-77
2022/07/05 04:50:29;;;;;;;9.20;3.42;;;;;;;27.97;83.69;100985.00;5157307;27;20036;-77
2022/07/05 04:53:15;;;;;;;8.13;3.78;;;;;;;27.97;82.50;100987.69;5157471;27;20102;-77
2022/07/05 04:56:01;;;;;;;9.82;3.75;;;;;;;28.32;83.28;100989.06;5142814;27;20091;-77
2022/07/05 04:58:46;;;;;;;9.63;4.38;;;;;;;27.87;83.90;100987.63;5156671;27;20037;-76
2022/07/05 05:01:32;;;;;;;11.50;4.90;;;;;;;28.19;80.25;100988.41;5143177;27;20023;-77
2022/07/05 05:04:18;;;;;;;5.93;4.90;;;;;;;27.70;85.12;100985.47;5157942;27;20030;-77
2022/07/05 05:07:04;;;;;;;13.05;5.30;;;;;;;28.16;84.53;100995.91;5157437;27;20022;-77
2022/07/05 05:09:50;;;;;;;7.07;4.00;;;;;;;28.06;81.32;100995.84;5157044;27;20031;-77
2022/07/05 05:12:36;;;;;;;5.65;3.45;;;;;;;28.21;79.03;100999.06;5156516;27;20041;-77
2022/07/05 05:15:21;;;;;;;5.32;3.47;;;;;;;28.19;78.03;100993.81;5156332;27;20030;-78
2022/07/05 05:18:07;;;;;;;7.03;3.45;;;;;;;28.88;75.44;100989.50;5155274;27;20516;-77
2022/07/05 05:20:54;;;;;;;5.80;3.63;;;;;;;28.81;75.23;100983.78;5141513;27;20030;-77
2022/07/05 05:23:40;;;;;;;6.30;3.78;;;;;;;28.72;73.42;100997.25;5155728;27;20030;-77
2022/07/05 05:26:26;;;;;;;7.50;3.80;;;;;;;28.43;71.69;100999.81;5141918;27;20023;-78
2022/07/05 05:29:12;;;;;;;7.70;3.60;;;;;;;28.33;70.76;100998.84;5156738;27;20030;-77
2022/07/05 05:31:59;;;;;;;6.68;3.60;;;;;;;28.69;68.78;100992.13;5157140;27;20026;-77
2022/07/05 05:34:45;;;;;;;3.80;3.25;;;;;;;28.37;72.09;100994.91;5142556;27;20022;-78
2022/07/05 05:37:44;;;;;;;5.57;3.70;;;;;;;27.87;75.22;100990.31;5141407;27;20368;-77
2022/07/05 05:40:30;;;;;;;5.80;3.70;;;;;;;28.59;73.80;101000.19;5142046;27;20058;-77
2022/07/05 05:43:15;;;;;;;3.85;3.30;;;;;;;29.37;70.89;100989.53;5157244;27;20106;-77
2022/07/05 05:46:03;;;;;;;8.52;3.75;;;;;;;29.26;69.75;101000.44;5156752;27;20118;-78
2022/07/05 05:48:49;;;;;;;6.32;3.97;;;;;;;29.07;72.15;101001.25;5157202;27;20034;-77
2022/07/05 05:51:34;;;;;;;6.97;4.18;;;;;;;29.16;74.61;101010.34;5157191;27;20064;-77
2022/07/05 05:54:20;;;;;;;9.35;4.30;;;;;;;29.39;71.12;101006.44;5158439;27;20034;-78
2022/07/05 05:57:06;;;;;;;9.05;3.60;;;;;;;28.96;73.22;101014.81;5157994;27;20049;-76
2022/07/05 05:59:52;;;;;;;6.03;4.00;;;;;;;29.13;73.70;101005.25;5159001;27;20015;-77
2022/07/05 06:02:38;;;;;;;8.35;4.55;;;;;;;29.66;75.28;101010.19;5158780;27;20034;-77
2022/07/05 06:05:24;;;;;;;11.68;4.05;;;;;;;30.01;75.02;101020.44;5156378;27;20026;-76
2022/07/05 06:08:11;;;;;;;10.32;3.80;;;;;;;29.62;67.67;101016.03;5141357;27;20026;-77
2022/07/05 06:10:56;;;;;;;5.05;3.50;;;;;;;29.63;67.18;101020.44;5156706;27;20477;-77
2022/07/05 06:13:42;;;;;;;8.15;3.85;;;;;;;29.81;68.17;101019.59;5141543;27;20033;-77
2022/07/05 06:16:28;;;;;;;5.70;3.75;;;;;;;30.59;67.97;101009.41;5157165;27;20030;-79
2022/07/05 06:19:14;;;;;;;4.65;3.67;;;;;;;30.48;66.63;101008.72;5158604;27;20109;-78
2022/07/05 06:22:00;;;;;;;9.10;5.07;;;;;;;30.73;73.07;101014.38;5156845;27;20054;-78
2022/07/05 06:24:45;;;;;;;11.02;4.65;;;;;;;31.08;74.88;101014.50;5157005;27;20034;-77
2022/07/05 06:27:31;;;;;;;11.40;5.10;;;;;;;31.34;72.48;101010.09;5142216;27;20023;-77
2022/07/05 06:30:20;;;;;;;13.68;4.70;;;;;;;31.24;72.94;101019.28;5155572;27;20026;-77
2022/07/05 06:33:06;;;;;;;10.57;5.40;;;;;;;30.81;74.65;101019.88;5156607;27;20094;-78
2022/07/05 06:35:52;;;;;;;15.60;6.43;;;;;;;30.85;80.38;101015.88;5155939;27;20015;-78
2022/07/05 06:38:37;;;;;;;13.98;5.70;;;;;;;30.70;81.41;101022.78;5157444;27;20030;-77
2022/07/05 06:41:23;;;;;;;19.83;5.13;;;;;;;31.13;78.41;101017.59;5156540;27;20026;-77
2022/07/05 06:44:09;;;;;;;22.15;5.47;;;;;;;30.90;79.91;101019.00;5155945;27;20050;-77
2022/07/05 06:46:55;;;;;;;13.25;4.90;;;;;;;30.97;78.78;101017.41;5156488;27;20019;-78
2022/07/05 06:49:40;;;;;;;11.57;5.22;;;;;;;31.10;78.49;101017.91;5142784;27;20030;-77
2022/07/05 06:52:26;;;;;;;10.48;4.75;;;;;;;31.58;76.53;101014.06;5156591;27;20528;-78
2022/07/05 06:55:12;;;;;;;14.15;4.90;;;;;;;31.45;74.37;101021.72;5141487;27;20097;-78
2022/07/05 06:58:05;;;;;;;11.15;4.72;;;;;;;31.57;69.17;101024.03;5157727;27;20070;-78
2022/07/05 07:00:51;;;;;;;10.57;4.95;;;;;;;31.37;68.68;101025.19;5156539;27;20437;-78
2022/07/05 07:03:36;;;;;;;11.35;5.00;;;;;;;31.59;70.53;101016.63;5156361;27;20030;-77
2022/07/05 07:06:22;;;;;;;10.23;4.85;;;;;;;31.69;70.29;101020.09;5156466;27;20034;-78
2022/07/05 07:09:22;;;;;;;14.55;4.65;;;;;;;31.62;71.36;101023.59;5155789;27;20427;-78
2022/07/05 07:12:08;;;;;;;13.75;5.10;;;;;;;31.59;69.11;101024.75;5156560;27;20037;-78
2022/07/05 07:14:54;;;;;;;11.38;5.03;;;;;;;32.48;66.74;101030.00;5157131;27;20018;-78
2022/07/05 07:17:39;;;;;;;9.20;5.38;;;;;;;32.45;64.69;101032.16;5158440;27;20063;-78
2022/07/05 07:20:25;;;;;;;10.45;5.10;;;;;;;32.17;65.86;101035.97;5156500;27;20032;-78
2022/07/05 07:23:11;;;;;;;9.65;4.65;;;;;;;32.61;64.38;101033.13;5156400;27;20022;-78
2022/07/05 07:25:57;;;;;;;11.07;4.95;;;;;;;32.93;59.81;101027.91;5156201;27;20033;-77
2022/07/05 07:28:43;;;;;;;16.75;8.15;;;;;;;32.97;59.88;101026.59;5155252;27;20023;-78
2022/07/05 07:31:29;;;;;;;10.48;5.45;;;;;;;32.88;56.27;101030.28;5155087;27;20077;-78
2022/07/05 07:34:14;;;;;;;11.10;6.25;;;;;;;32.92;56.93;101026.22;5156147;27;20018;-78
2022/07/05 07:37:00;;;;;;;11.30;5.40;;;;;;;32.74;56.70;101025.41;5141841;27;20030;-77
2022/07/05 07:39:46;;;;;;;9.38;5.07;;;;;;;33.03;55.34;101025.09;5141048;27;20031;-79
2022/07/05 07:42:32;;;;;;;13.95;5.18;;;;;;;32.65;55.98;101020.94;5139114;27;20030;-78
2022/07/05 07:45:18;;;;;;;10.13;6.55;;;;;;;32.87;55.99;101022.28;5154408;27;20448;-79
2022/07/05 07:48:04;;;;;;;14.25;7.03;;;;;;;33.35;58.51;101025.25;5157083;27;20030;-78
2022/07/05 07:50:49;;;;;;;10.23;5.15;;;;;;;32.49;64.31;101026.28;5158595;27;20065;-78
2022/07/05 07:53:35;;;;;;;13.38;5.30;;;;;;;32.25;64.43;101022.47;5158160;27;20089;-78
2022/07/05 07:56:21;;;;;;;13.45;5.57;;;;;;;32.42;65.60;101025.19;5158952;27;20125;-78
2022/07/05 07:59:07;;;;;;;11.57;5.65;;;;;;;33.80;58.77;101025.66;5144178;27;20022;-79
2022/07/05 08:01:53;;;;;;;14.85;5.82;;;;;;;34.44;57.58;101021.13;5158709;27;20026;-80
2022/07/05 08:04:38;;;;;;;14.25;5.15;;;;;;;34.52;51.74;101026.53;5143249;27;20026;-77
2022/07/05 08:07:25;;;;;;;13.60;5.55;;;;;;;34.51;53.44;101024.84;5142898;27;20038;-76
2022/07/05 08:10:10;;;;;;;10.98;5.63;;;;;;;34.49;49.95;101024.19;5159029;27;20101;-79
2022/07/05 08:12:56;;;;;;;9.82;4.90;;;;;;;34.62;50.17;101023.63;5158257;27;20031;-75
2022/07/05 08:15:42;;;;;;;8.43;5.00;;;;;;;35.00;49.26;101022.88;5142560;27;20027;-74
2022/07/05 08:21:38;;;;;;;13.93;4.97;;;;;;;34.87;49.96;101018.00;5158450;27;20027;-75
2022/07/05 08:24:23;;;;;;;9.32;5.22;;;;;;;35.35;46.00;101010.66;5142300;27;20033;-75
2022/07/05 08:27:09;;;;;;;10.70;5.55;;;;;;;35.48;45.71;101006.31;5162698;27;20028;-75
2022/07/05 08:29:55;;;;;;;14.95;11.05;;;;;;;35.49;45.65;101001.69;5160528;27;20042;-76
2022/07/05 08:33:18;;;;;;;9.27;5.30;;;;;;;36.06;43.98;101011.19;5161612;27;20031;-76
2022/07/05 08:36:04;;;;;;;7.35;5.05;;;;;;;35.96;43.56;101010.59;5157783;27;20054;-78
2022/07/05 08:38:50;;;;;;;8.68;5.50;;;;;;;35.21;44.87;101006.78;5157851;27;20101;-78
2022/07/05 08:41:37;;;;;;;8.38;4.80;;;;;;;35.07;46.20;101007.50;5157096;27;20113;-78
2022/07/05 08:44:23;;;;;;;10.20;5.03;;;;;;;35.22;47.60;101004.91;5157736;27;20030;-77
2022/07/05 08:47:11;;;;;;;13.32;5.35;;;;;;;35.50;46.42;101003.41;5141771;27;20023;-78
2022/07/05 08:49:58;;;;;;;13.70;10.68;;;;;;;35.95;45.35;101001.56;5158390;27;20026;-78
2022/07/05 08:52:45;;;;;;;13.43;6.28;;;;;;;36.23;43.29;101004.63;5157481;27;20113;-79
2022/07/05 08:55:32;;;;;;;10.60;5.32;;;;;;;36.33;42.24;100997.84;5157378;27;20038;-80
2022/07/05 08:58:26;;;;;;;13.57;5.75;;;;;;;36.04;42.18;100986.81;5157585;27;20019;-79
2022/07/05 09:01:13;;;;;;;9.68;5.90;;;;;;;35.54;43.52;100981.06;5157031;27;20023;-76
2022/07/05 09:04:01;;;;;;;12.15;7.25;;;;;;;35.97;43.83;100988.59;5141089;27;20023;-75
2022/07/05 09:06:48;;;;;;;13.35;5.97;;;;;;;36.70;41.16;100991.50;5157048;27;20061;-75
2022/07/05 09:09:42;;;;;;;9.75;5.88;;;;;;;36.57;41.83;100983.09;5157085;27;20026;-76
2022/07/05 09:12:28;;;;;;;12.07;5.82;;;;;;;36.62;39.99;100986.09;5141547;27;20061;-75
2022/07/05 09:15:14;;;;;;;11.50;5.47;;;;;;;36.68;40.18;100985.34;5156232;27;20033;-76
2022/07/05 09:17:59;;;;;;;12.55;6.05;;;;;;;36.77;38.50;100985.13;5155920;27;20026;-76
2022/07/05 09:20:46;;;;;;;8.20;5.35;;;;;;;36.79;37.38;100977.56;5156865;27;20341;-76
2022/07/05 09:23:33;;;;;;;13.52;5.93;;;;;;;37.02;37.95;100975.56;5156522;27;20022;-75
2022/07/05 09:26:18;;;;;;;10.77;6.13;;;;;;;37.30;36.93;100970.25;5156570;27;20027;-76
2022/07/05 09:29:15;;;;;;;6.32;4.90;;;;;;;36.79;35.82;100965.78;5156428;27;20349;-75
2022/07/05 09:32:01;;;;;;;11.82;5.78;;;;;;;36.46;37.66;100970.75;5141557;27;20072;-75
2022/07/05 09:34:47;;;;;;;8.63;6.97;;;;;;;36.98;36.94;100977.00;5155981;27;20058;-76
2022/07/05 09:37:44;;;;;;;10.75;7.07;;;;;;;37.27;35.77;100962.44;5156555;27;20019;-75
2022/07/05 09:40:34;;;;;;;12.10;6.93;;;;;;;37.65;35.08;100962.03;5157549;27;20034;-76
2022/07/05 09:43:28;;;;;;;14.43;6.70;;;;;;;37.58;35.06;100960.25;5141603;27;20033;-75
2022/07/05 09:46:14;;;;;;;6.18;5.22;;;;;;;37.23;34.08;100952.91;5156361;27;20030;-75
2022/07/05 09:49:00;;;;;;;8.98;5.05;;;;;;;36.42;34.75;100961.25;5156093;27;20023;-76
2022/07/05 09:51:49;;;;;;;10.15;5.75;;;;;;;36.50;35.36;100950.22;5157089;27;20082;-76
2022/07/05 09:54:36;;;;;;;8.52;4.85;;;;;;;36.31;36.53;100953.50;5141891;27;20034;-80
2022/07/05 09:57:25;;;;;;;9.32;4.65;;;;;;;36.60;35.83;100948.03;5143716;27;20030;-78
2022/07/05 10:00:19;;;;;;;13.35;5.57;;;;;;;36.92;35.83;100944.94;5141542;27;20023;-77
2022/07/05 10:03:05;;;;;;;8.93;5.28;;;;;;;36.97;36.11;100947.97;5142204;27;20021;-77
2022/07/05 10:05:51;;;;;;;9.77;5.22;;;;;;;36.81;34.56;100940.00;5141510;27;20018;-77
2022/07/05 10:08:37;;;;;;;9.07;4.95;;;;;;;36.77;34.49;100935.94;5159052;27;20366;-78
2022/07/05 10:11:24;;;;;;;6.43;5.53;;;;;;;36.83;35.97;100940.63;5140469;27;20372;-78
2022/07/05 10:14:18;;;;;;;8.02;5.15;;;;;;;36.30;35.97;100942.75;5155183;27;20042;-77
2022/07/05 10:17:09;;;;;;;10.13;4.95;;;;;;;35.96;36.05;100937.78;5140237;27;20046;-76
2022/07/05 10:19:57;;;;;;;9.48;5.55;;;;;;;35.76;37.92;100933.91;5140845;27;20069;-77
2022/07/05 10:22:43;;;;;;;7.18;5.38;;;;;;;36.51;36.98;100941.00;5140930;27;20026;-78
2022/07/05 10:25:29;;;;;;;7.30;5.40;;;;;;;36.74;36.36;100946.38;5156127;27;20033;-74
2022/07/05 10:28:17;;;;;;;6.53;5.40;;;;;;;36.98;35.85;100927.81;5141835;27;20023;-77
2022/07/05 10:31:03;;;;;;;9.20;5.35;;;;;;;36.95;35.09;100932.78;5141486;27;20121;-77
2022/07/05 10:33:50;;;;;;;8.38;5.28;;;;;;;37.24;34.81;100927.31;5155114;27;20447;-76
2022/07/05 10:36:38;;;;;;;8.45;5.38;;;;;;;37.99;34.46;100923.84;5155231;27;20095;-76
2022/07/05 10:39:28;;;;;;;8.18;5.20;;;;;;;36.62;34.87;100928.75;5156301;27;20059;-76
2022/07/05 10:42:14;;;;;;;10.57;5.50;;;;;;;36.62;35.24;100926.88;5139519;27;20022;-75
2022/07/05 10:45:00;;;;;;;11.10;5.70;;;;;;;37.05;34.35;100922.41;5155311;27;20373;-75
2022/07/05 10:48:24;;;;;;;8.82;5.20;;;;;;;36.53;34.65;100928.03;5155033;27;20381;-75
2022/07/05 10:51:14;;;;;;;10.75;5.53;;;;;;;37.63;34.43;100914.03;5141415;27;20029;-78
2022/07/05 15:49:30;;;;;;;8.23;6.00;;;;;;;34.69;39.39;100708.81;6117928;23;20025;31
2022/07/05 15:52:17;;;;;;;7.90;6.22;;;;;;;34.68;39.47;100702.53;4955832;29;20059;-72
2022/07/05 15:55:04;;;;;;;7.05;5.65;;;;;;;34.25;40.12;100703.16;4961977;28;20039;-72
2022/07/05 15:57:50;;;;;;;10.38;5.75;;;;;;;34.47;40.02;100704.25;4964654;28;20027;-72
2022/07/05 16:00:35;;;;;;;7.43;5.80;;;;;;;34.44;40.13;100707.31;4961541;28;20110;-72
2022/07/05 16:03:21;;;;;;;11.18;5.70;;;;;;;34.45;40.25;100704.41;4965207;28;20019;-71
2022/07/05 16:06:07;;;;;;;9.70;5.10;;;;;;;34.15;40.44;100707.13;4961263;28;20383;-73
2022/07/05 16:08:53;;;;;;;9.43;5.60;;;;;;;34.17;40.74;100707.78;4962185;28;20371;-72
2022/07/05 16:11:39;;;;;;;12.27;5.68;;;;;;;34.08;40.64;100706.94;4964957;28;20438;-73
2022/07/05 16:14:24;;;;;;;8.88;5.28;;;;;;;34.08;40.89;100703.41;4962847;28;20087;-72
2022/07/05 16:17:10;;;;;;;10.95;5.50;;;;;;;34.21;40.54;100707.25;4950383;28;20046;-72
2022/07/05 16:19:56;;;;;;;15.50;7.43;;;;;;;33.96;41.06;100702.09;4965684;28;20027;-72
2022/07/05 16:22:41;;;;;;;55.28;30.85;;;;;;;34.09;40.94;100700.50;4963553;28;20042;-75
2022/07/05 16:25:27;;;;;;;15.77;11.18;;;;;;;34.14;41.40;100702.69;4960627;29;20349;-72
2022/07/05 16:28:13;;;;;;;12.93;7.22;;;;;;;34.00;41.60;100698.84;4960092;29;20179;-72
2022/07/05 16:31:02;;;;;;;10.88;5.95;;;;;;;33.72;42.13;100694.00;4960823;28;20031;-71
2022/07/05 16:33:50;;;;;;;20.65;12.70;;;;;;;33.67;41.91;100696.41;4959632;29;20042;-71
2022/07/05 16:36:36;;;;;;;25.33;13.13;;;;;;;33.56;42.35;100702.22;4959085;29;20023;-73
2022/07/05 16:39:22;;;;;;;12.68;5.97;;;;;;;33.71;42.18;100706.75;4959381;29;20449;-72
2022/07/05 16:42:08;;;;;;;9.82;5.95;;;;;;;33.76;42.11;100704.38;4959020;29;20099;-74
2022/07/05 16:44:54;;;;;;;8.18;5.80;;;;;;;33.75;42.26;100707.25;4959014;29;20086;-72
2022/07/05 16:47:40;;;;;;;10.63;6.00;;;;;;;33.54;42.74;100704.25;4958577;29;20027;-71
2022/07/05 16:50:25;;;;;;;20.42;7.72;;;;;;;33.43;43.11;100704.63;4958732;29;20047;-73
2022/07/05 16:53:11;;;;;;;11.80;6.13;;;;;;;33.45;43.10;100697.13;4958929;28;20035;-71
2022/07/05 16:55:57;;;;;;;8.82;6.00;;;;;;;33.21;43.14;100708.03;4959104;28;20023;-74
2022/07/05 16:58:49;;;;;;;12.80;6.53;;;;;;;33.03;44.21;100708.19;4959590;28;20027;-75
2022/07/05 17:01:34;;;;;;;14.38;5.85;;;;;;;33.26;43.83;100709.19;4959356;28;20035;-74
2022/07/05 17:04:20;;;;;;;9.68;5.72;;;;;;;33.09;44.12;100714.81;4959043;28;20453;-74
2022/07/05 17:07:06;;;;;;;10.60;5.80;;;;;;;33.10;44.32;100716.53;4960576;28;20561;-74
2022/07/05 17:09:52;;;;;;;9.52;5.88;;;;;;;33.27;44.55;100724.47;4960087;28;20045;-73
2022/07/05 17:12:38;;;;;;;11.13;5.70;;;;;;;33.10;45.07;100724.69;4959052;28;20046;-74
2022/07/05 17:15:23;;;;;;;8.90;5.68;;;;;;;32.69;46.21;100718.34;4957812;28;20042;-74
2022/07/05 17:18:09;;;;;;;12.23;5.60;;;;;;;32.92;46.05;100719.44;4958465;28;20469;-72
2022/07/05 17:20:58;;;;;;;10.25;5.80;;;;;;;32.88;46.19;100734.34;4959292;28;20038;-73
2022/07/05 17:23:46;;;;;;;10.38;5.55;;;;;;;32.62;47.40;100722.75;4958835;28;20114;-74
2022/07/05 17:26:32;;;;;;;10.07;5.68;;;;;;;32.68;47.43;100713.94;4958151;29;20023;-73
2022/07/05 17:29:18;;;;;;;11.23;5.80;;;;;;;32.44;48.32;100710.34;4958335;28;20039;-72
2022/07/05 17:32:04;;;;;;;9.88;5.80;;;;;;;32.47;48.58;100715.44;4959182;28;20446;-72
2022/07/05 17:34:50;;;;;;;8.75;5.40;;;;;;;32.60;48.39;100703.09;4957641;28;20037;-74
2022/07/05 17:37:36;;;;;;;8.82;5.47;;;;;;;32.41;49.75;100710.66;4958734;28;20093;-74
2022/07/05 17:40:23;;;;;;;8.82;5.68;;;;;;;32.35;49.60;100719.47;4958531;28;20053;-73
2022/07/05 17:43:09;;;;;;;9.85;5.55;;;;;;;32.25;49.84;100716.00;4958626;28;20038;-74
2022/07/05 17:45:55;;;;;;;7.95;5.70;;;;;;;32.15;50.80;100712.59;4958226;28;20023;-75
2022/07/05 17:48:44;;;;;;;10.05;5.63;;;;;;;32.20;50.96;100719.25;4957370;28;20073;-74
2022/07/05 17:51:30;;;;;;;10.65;5.82;;;;;;;32.03;51.69;100722.91;4956696;29;20043;-75